createdAt,value
2019-01-30T00:00:31.406Z,68.60
2019-01-30T00:02:58.966Z,68.26
2019-01-30T00:05:26.406Z,68.73
2019-01-30T00:07:53.862Z,68.93
2019-01-30T00:10:21.306Z,69.06
2019-01-30T00:12:48.884Z,68.51
2019-01-30T00:15:16.324Z,69.01
2019-01-30T00:17:43.846Z,68.68
2019-01-30T00:20:11.263Z,68.77
2019-01-30T00:22:38.699Z,68.64
2019-01-30T00:25:06.243Z,68.99
2019-01-30T00:27:33.700Z,68.76
2019-01-30T00:30:04.011Z,68.94
2019-01-30T00:32:29.014Z,68.43
2019-01-30T00:34:56.755Z,68.40
2019-01-30T00:40:15.716Z,68.33
2019-01-30T00:42:43.176Z,68.38
2019-01-30T00:45:11.521Z,68.16
2019-01-30T00:47:39.568Z,67.95
2019-01-30T00:50:06.988Z,67.87
2019-01-30T00:52:34.439Z,68.02
2019-01-30T00:55:01.873Z,68.23
2019-01-30T00:57:30.281Z,67.64
2019-01-30T00:59:57.711Z,67.82
2019-01-30T01:02:25.134Z,67.90
2019-01-30T01:04:52.602Z,67.75
2019-01-30T01:07:20.019Z,67.65
2019-01-30T01:09:47.481Z,67.38
2019-01-30T01:12:14.919Z,67.53
2019-01-30T01:14:42.373Z,67.29
2019-01-30T01:17:10.381Z,66.99
2019-01-30T01:19:37.811Z,67.03
2019-01-30T01:22:05.260Z,67.31
2019-01-30T01:24:32.690Z,67.18
2019-01-30T01:27:00.146Z,67.30
2019-01-30T01:29:27.587Z,67.20
2019-01-30T01:31:55.016Z,66.82
2019-01-30T01:34:22.473Z,67.03
2019-01-30T01:36:49.907Z,66.66
2019-01-30T01:39:17.341Z,67.41
2019-01-30T01:41:44.798Z,67.07
2019-01-30T01:44:12.226Z,67.46
2019-01-30T01:46:39.672Z,67.05
2019-01-30T01:49:07.094Z,67.17
2019-01-30T01:51:34.542Z,67.15
2019-01-30T01:54:02.005Z,67.23
2019-01-30T01:56:29.445Z,67.17
2019-01-30T01:58:56.876Z,67.13
2019-01-30T02:01:24.297Z,67.00
2019-01-30T02:03:51.732Z,67.12
2019-01-30T02:06:19.173Z,67.32
2019-01-30T02:08:47.352Z,67.15
2019-01-30T02:11:14.818Z,67.35
2019-01-30T02:13:42.240Z,67.97
2019-01-30T02:16:10.282Z,67.27
2019-01-30T02:18:37.722Z,67.62
2019-01-30T02:21:05.172Z,67.33
2019-01-30T02:23:32.625Z,67.34
2019-01-30T02:26:00.043Z,67.91
2019-01-30T02:28:27.478Z,68.06
2019-01-30T02:30:55.946Z,67.76
2019-01-30T02:33:23.450Z,67.77
2019-01-30T02:35:51.226Z,68.04
2019-01-30T02:38:18.897Z,67.51
2019-01-30T02:40:46.328Z,67.62
2019-01-30T02:43:13.784Z,67.37
2019-01-30T02:45:42.262Z,67.67
2019-01-30T02:48:09.680Z,67.85
2019-01-30T02:50:37.122Z,67.58
2019-01-30T02:53:04.557Z,67.56
2019-01-30T02:55:32.021Z,67.70
2019-01-30T02:57:59.494Z,67.47
2019-01-30T03:00:28.454Z,67.54
2019-01-30T03:02:55.895Z,67.47
2019-01-30T03:05:23.331Z,67.67
2019-01-30T03:07:50.774Z,67.43
2019-01-30T03:10:19.151Z,67.13
2019-01-30T03:12:46.576Z,67.26
2019-01-30T03:15:14.950Z,67.31
2019-01-30T03:17:42.965Z,66.95
2019-01-30T03:20:14.251Z,67.20
2019-01-30T03:22:41.692Z,67.42
2019-01-30T03:25:09.131Z,67.01
2019-01-30T03:27:37.500Z,66.95
2019-01-30T03:30:20.833Z,67.11
2019-01-30T03:32:48.334Z,66.86
2019-01-30T03:35:15.742Z,67.01
2019-01-30T03:37:43.497Z,66.84
2019-01-30T03:40:11.765Z,66.64
2019-01-30T03:42:39.223Z,67.10
2019-01-30T03:45:06.642Z,67.20
2019-01-30T03:47:34.148Z,66.95
2019-01-30T03:50:01.588Z,66.99
2019-01-30T03:52:29.048Z,66.77
2019-01-30T03:54:56.464Z,66.90
2019-01-30T03:57:23.938Z,66.46
2019-01-30T03:59:51.369Z,66.92
2019-01-30T04:02:18.823Z,67.03
2019-01-30T04:04:46.290Z,66.64
2019-01-30T04:07:13.958Z,66.41
2019-01-30T04:09:41.429Z,66.41
2019-01-30T04:12:08.884Z,66.96
2019-01-30T04:14:36.368Z,66.72
2019-01-30T04:17:03.809Z,66.61
2019-01-30T04:19:31.251Z,66.56
2019-01-30T04:21:58.690Z,66.61
2019-01-30T04:24:26.163Z,66.67
2019-01-30T04:26:53.639Z,66.46
2019-01-30T04:29:21.063Z,66.42
2019-01-30T04:31:48.498Z,66.33
2019-01-30T04:34:15.953Z,66.61
2019-01-30T04:36:43.392Z,66.75
2019-01-30T04:39:10.858Z,66.58
2019-01-30T04:41:38.291Z,66.44
2019-01-30T04:44:05.768Z,66.16
2019-01-30T04:46:33.192Z,66.79
2019-01-30T04:49:00.656Z,66.79
2019-01-30T04:51:28.101Z,66.70
2019-01-30T04:53:55.530Z,66.96
2019-01-30T04:56:22.961Z,67.07
2019-01-30T04:58:50.371Z,67.07
2019-01-30T05:01:17.822Z,66.83
2019-01-30T05:03:45.236Z,66.86
2019-01-30T05:06:12.692Z,66.88
2019-01-30T05:08:40.130Z,66.91
2019-01-30T05:11:07.548Z,67.29
2019-01-30T05:13:35.008Z,67.54
2019-01-30T05:16:02.422Z,67.62
2019-01-30T05:18:29.894Z,67.57
2019-01-30T05:20:57.307Z,67.13
2019-01-30T05:23:24.860Z,67.50
2019-01-30T05:25:52.300Z,67.19
2019-01-30T05:28:19.760Z,67.32
2019-01-30T05:30:47.193Z,67.18
2019-01-30T05:33:15.463Z,67.48
2019-01-30T05:35:42.896Z,67.37
2019-01-30T05:38:10.337Z,66.88
2019-01-30T05:40:38.623Z,67.10
2019-01-30T05:43:06.169Z,67.16
2019-01-30T05:45:33.582Z,66.89
2019-01-30T05:48:01.020Z,66.82
2019-01-30T05:50:28.460Z,67.33
2019-01-30T05:52:55.920Z,67.07
2019-01-30T05:55:23.376Z,66.84
2019-01-30T05:57:50.839Z,66.87
2019-01-30T06:00:20.814Z,66.90
2019-01-30T06:02:48.259Z,67.13
2019-01-30T06:05:16.084Z,67.12
2019-01-30T06:07:43.526Z,67.06
2019-01-30T06:10:10.973Z,66.97
2019-01-30T06:12:38.449Z,66.80
2019-01-30T06:15:07.773Z,66.58
2019-01-30T06:17:35.200Z,66.83
2019-01-30T06:20:02.653Z,66.89
2019-01-30T06:22:30.072Z,66.94
2019-01-30T06:24:57.503Z,66.64
2019-01-30T06:27:24.931Z,66.82
2019-01-30T06:29:52.348Z,66.84
2019-01-30T06:32:21.810Z,67.01
2019-01-30T06:34:47.287Z,67.03
2019-01-30T06:37:14.727Z,66.99
2019-01-30T06:39:42.180Z,67.13
2019-01-30T06:42:09.608Z,67.35
2019-01-30T06:44:37.086Z,67.29
2019-01-30T06:47:04.514Z,67.23
2019-01-30T06:49:31.937Z,67.08
2019-01-30T06:51:59.389Z,67.22
2019-01-30T06:54:26.832Z,67.26
2019-01-30T06:56:54.291Z,67.05
2019-01-30T06:59:21.728Z,67.31
2019-01-30T07:01:49.150Z,67.40
2019-01-30T07:04:17.184Z,67.67
2019-01-30T07:06:44.635Z,67.85
2019-01-30T07:09:12.063Z,67.64
2019-01-30T07:11:39.549Z,67.43
2019-01-30T07:14:06.988Z,67.56
2019-01-30T07:16:34.451Z,67.82
2019-01-30T07:19:02.400Z,67.69
2019-01-30T07:21:29.867Z,67.65
2019-01-30T07:23:57.298Z,67.47
2019-01-30T07:26:24.731Z,67.50
2019-01-30T07:28:52.198Z,67.31
2019-01-30T07:31:19.627Z,67.33
2019-01-30T07:33:48.686Z,67.07
2019-01-30T07:36:16.135Z,67.14
2019-01-30T07:38:43.562Z,66.85
2019-01-30T07:41:10.995Z,67.46
2019-01-30T07:43:38.426Z,67.33
2019-01-30T07:46:05.853Z,67.40
2019-01-30T07:48:33.322Z,67.43
2019-01-30T07:51:00.751Z,67.36
2019-01-30T07:53:28.175Z,67.06
2019-01-30T07:55:55.609Z,67.42
2019-01-30T07:58:23.040Z,67.51
2019-01-30T08:00:50.526Z,68.20
2019-01-30T08:03:18.307Z,68.26
2019-01-30T08:05:45.769Z,68.08
2019-01-30T08:08:13.249Z,68.47
2019-01-30T08:10:40.681Z,68.32
2019-01-30T08:13:08.154Z,68.21
2019-01-30T08:15:35.615Z,68.46
2019-01-30T08:18:03.081Z,68.22
2019-01-30T08:20:30.519Z,68.11
2019-01-30T08:22:58.065Z,67.84
2019-01-30T08:25:25.701Z,67.83
2019-01-30T08:27:52.935Z,67.88
2019-01-30T08:30:23.648Z,67.99
2019-01-30T08:32:51.402Z,67.95
2019-01-30T08:35:18.925Z,68.21
2019-01-30T08:37:46.402Z,68.85
2019-01-30T08:40:13.858Z,69.66
2019-01-30T08:42:41.284Z,70.13
2019-01-30T08:45:10.043Z,70.66
2019-01-30T08:47:37.520Z,71.21
2019-01-30T08:50:04.982Z,71.77
2019-01-30T08:52:32.413Z,72.28
2019-01-30T08:54:59.844Z,72.74
2019-01-30T08:57:27.294Z,73.10
2019-01-30T08:59:54.716Z,73.46
2019-01-30T09:02:22.154Z,73.43
2019-01-30T09:04:49.583Z,73.70
2019-01-30T09:07:17.025Z,73.84
2019-01-30T09:09:44.475Z,73.84
2019-01-30T09:12:11.963Z,73.99
2019-01-30T09:14:39.399Z,74.16
2019-01-30T09:17:08.734Z,74.75
2019-01-30T09:19:34.302Z,74.73
2019-01-30T09:22:01.756Z,74.99
2019-01-30T09:24:29.218Z,74.99
2019-01-30T09:26:56.661Z,74.95
2019-01-30T09:29:24.109Z,75.10
2019-01-30T09:31:51.557Z,74.97
2019-01-30T09:34:20.043Z,75.19
2019-01-30T09:36:48.941Z,75.18
2019-01-30T09:39:16.464Z,75.08
2019-01-30T09:41:43.928Z,75.06
2019-01-30T09:44:11.381Z,74.94
2019-01-30T09:46:38.802Z,74.92
2019-01-30T09:49:06.226Z,75.13
2019-01-30T09:51:33.683Z,75.29
2019-01-30T09:54:01.096Z,75.40
2019-01-30T09:56:28.587Z,75.55
2019-01-30T09:58:56.000Z,75.27
2019-01-30T10:01:23.466Z,75.30
2019-01-30T10:03:50.934Z,75.45
2019-01-30T10:06:18.374Z,75.37
2019-01-30T10:08:45.852Z,75.38
2019-01-30T10:11:13.328Z,75.53
2019-01-30T10:13:40.780Z,75.54
2019-01-30T10:16:08.191Z,75.58
2019-01-30T10:18:35.649Z,75.67
2019-01-30T10:21:03.093Z,75.91
2019-01-30T10:23:30.602Z,75.82
2019-01-30T10:25:58.014Z,75.76
2019-01-30T10:28:25.459Z,75.88
2019-01-30T10:30:52.887Z,76.09
2019-01-30T10:33:20.854Z,76.17
2019-01-30T10:35:48.300Z,76.19
2019-01-30T10:38:15.749Z,76.45
2019-01-30T10:40:43.197Z,76.54
2019-01-30T10:43:10.696Z,76.51
2019-01-30T10:45:38.514Z,76.54
2019-01-30T10:48:05.641Z,76.75
2019-01-30T10:50:33.099Z,76.67
2019-01-30T10:53:00.533Z,76.90
2019-01-30T10:55:29.753Z,77.08
2019-01-30T10:57:57.179Z,77.26
2019-01-30T11:00:25.606Z,77.10
2019-01-30T11:02:53.090Z,77.25
2019-01-30T11:05:20.538Z,77.17
2019-01-30T11:07:47.994Z,77.37
2019-01-30T11:10:15.477Z,77.22
2019-01-30T11:12:42.901Z,77.19
2019-01-30T11:15:10.378Z,77.30
2019-01-30T11:17:38.903Z,77.22
2019-01-30T11:20:06.403Z,77.30
2019-01-30T11:22:33.836Z,77.06
2019-01-30T11:25:01.284Z,77.05
2019-01-30T11:27:28.758Z,76.89
2019-01-30T11:29:56.202Z,76.90
2019-01-30T11:32:23.649Z,76.88
2019-01-30T11:34:51.099Z,76.70
2019-01-30T11:37:18.549Z,76.75
2019-01-30T11:39:45.977Z,76.75
2019-01-30T11:42:13.415Z,76.82
2019-01-30T11:44:40.853Z,76.69
2019-01-30T11:47:08.347Z,76.84
2019-01-30T11:49:35.857Z,76.82
2019-01-30T11:52:03.323Z,76.90
2019-01-30T11:54:38.620Z,76.81
2019-01-30T11:56:58.303Z,77.01
2019-01-30T11:59:25.755Z,76.84
2019-01-30T12:01:53.523Z,76.75
2019-01-30T12:04:20.992Z,76.75
2019-01-30T12:06:48.433Z,76.86
2019-01-30T12:09:15.883Z,76.93
2019-01-30T12:11:43.349Z,77.16
2019-01-30T12:14:10.790Z,77.02
2019-01-30T12:16:39.231Z,77.01
2019-01-30T12:19:06.698Z,76.90
2019-01-30T12:21:34.158Z,77.23
2019-01-30T12:24:01.612Z,77.68
2019-01-30T12:26:29.071Z,77.18
2019-01-30T12:28:56.532Z,77.10
2019-01-30T12:31:24.163Z,76.87
2019-01-30T12:33:51.654Z,76.80
2019-01-30T12:36:19.133Z,76.84
2019-01-30T12:38:47.695Z,76.86
2019-01-30T12:41:15.227Z,76.89
2019-01-30T12:43:45.237Z,76.78
2019-01-30T12:46:10.148Z,76.74
2019-01-30T12:48:37.621Z,76.97
2019-01-30T12:51:05.922Z,77.20
2019-01-30T12:53:34.818Z,77.36
2019-01-30T12:56:00.942Z,77.35
2019-01-30T12:58:28.667Z,77.40
2019-01-30T13:00:56.228Z,77.55
2019-01-30T13:03:23.654Z,77.35
2019-01-30T13:05:51.096Z,77.42
2019-01-30T13:08:18.529Z,77.48
2019-01-30T13:10:45.999Z,77.37
2019-01-30T13:13:13.428Z,77.36
2019-01-30T13:15:40.951Z,77.21
2019-01-30T13:18:17.806Z,77.49
2019-01-30T13:20:35.796Z,77.42
2019-01-30T13:23:03.211Z,77.57
2019-01-30T13:25:30.637Z,77.51
2019-01-30T13:27:58.071Z,77.46
2019-01-30T13:30:26.999Z,77.60
2019-01-30T13:32:56.183Z,77.53
2019-01-30T13:35:23.639Z,77.48
2019-01-30T13:37:51.118Z,77.42
2019-01-30T13:40:19.472Z,77.65
2019-01-30T13:42:46.936Z,77.71
2019-01-30T13:45:14.395Z,78.16
2019-01-30T13:47:41.898Z,77.92
2019-01-30T13:50:10.128Z,77.54
2019-01-30T13:52:37.604Z,77.45
2019-01-30T13:55:05.168Z,77.25
2019-01-30T13:57:32.583Z,77.25
2019-01-30T14:00:00.055Z,77.09
2019-01-30T14:02:27.513Z,77.05
2019-01-30T14:04:59.507Z,77.30
2019-01-30T14:07:22.421Z,77.13
2019-01-30T14:09:49.881Z,76.99
2019-01-30T14:12:17.346Z,77.12
2019-01-30T14:14:44.793Z,77.05
2019-01-30T14:17:12.268Z,76.95
2019-01-30T14:19:39.774Z,76.84
2019-01-30T14:22:07.209Z,76.85
2019-01-30T14:24:35.192Z,76.83
2019-01-30T14:27:02.648Z,76.78
2019-01-30T14:29:30.106Z,76.73
2019-01-30T14:31:57.561Z,76.82
2019-01-30T14:34:25.055Z,76.85
2019-01-30T14:36:52.510Z,76.86
2019-01-30T14:39:19.985Z,77.11
2019-01-30T14:41:47.421Z,77.80
2019-01-30T14:44:14.888Z,78.46
2019-01-30T14:46:42.354Z,77.83
2019-01-30T14:49:09.810Z,77.78
2019-01-30T14:51:37.278Z,77.69
2019-01-30T14:54:04.758Z,77.28
2019-01-30T14:56:32.206Z,77.07
2019-01-30T14:58:59.876Z,76.99
2019-01-30T15:01:27.344Z,77.05
2019-01-30T15:03:54.836Z,77.47
2019-01-30T15:06:22.256Z,78.30
2019-01-30T15:08:49.723Z,79.15
2019-01-30T15:11:17.174Z,78.74
2019-01-30T15:13:44.633Z,78.87
2019-01-30T15:16:12.082Z,79.81
2019-01-30T15:18:39.570Z,81.42
2019-01-30T15:21:06.988Z,81.13
2019-01-30T15:23:34.429Z,81.66
2019-01-30T15:26:01.914Z,83.06
2019-01-30T15:28:29.353Z,83.28
2019-01-30T15:30:57.669Z,83.36
2019-01-30T15:33:25.087Z,84.03
2019-01-30T15:35:52.543Z,84.34
2019-01-30T15:38:20.849Z,84.54
2019-01-30T15:40:47.497Z,84.49
2019-01-30T15:43:16.204Z,85.51
2019-01-30T15:45:43.647Z,85.11
2019-01-30T15:48:11.126Z,84.81
2019-01-30T15:50:39.309Z,85.01
2019-01-30T15:53:07.583Z,85.69
2019-01-30T15:55:35.021Z,86.19
2019-01-30T15:58:02.584Z,86.37
2019-01-30T16:00:33.494Z,87.43
2019-01-30T16:03:00.961Z,87.60
2019-01-30T16:05:29.899Z,87.55
2019-01-30T16:07:58.418Z,87.17
2019-01-30T16:10:25.886Z,87.63
2019-01-30T16:12:53.393Z,87.40
2019-01-30T16:15:30.429Z,86.84
2019-01-30T16:17:58.525Z,86.91
2019-01-30T16:20:25.991Z,86.74
2019-01-30T16:22:53.478Z,87.09
2019-01-30T16:25:20.995Z,87.16
2019-01-30T16:27:48.460Z,87.42
2019-01-30T16:30:16.687Z,87.70
2019-01-30T16:32:44.096Z,87.70
2019-01-30T16:35:11.521Z,87.17
2019-01-30T16:37:39.054Z,86.85
2019-01-30T16:40:06.536Z,86.47
2019-01-30T16:42:34.003Z,86.47
2019-01-30T16:45:02.528Z,86.29
2019-01-30T16:47:29.271Z,86.50
2019-01-30T16:49:56.730Z,86.70
2019-01-30T16:52:24.188Z,87.17
2019-01-30T16:54:51.698Z,87.76
2019-01-30T16:57:19.211Z,87.78
2019-01-30T16:59:46.720Z,87.76
2019-01-30T17:02:14.257Z,88.75
2019-01-30T17:04:41.687Z,88.87
2019-01-30T17:07:10.262Z,89.14
2019-01-30T17:09:37.798Z,89.06
2019-01-30T17:12:05.274Z,88.74
2019-01-30T17:14:32.737Z,89.44
2019-01-30T17:17:00.159Z,89.17
2019-01-30T17:19:27.823Z,89.71
2019-01-30T17:21:55.327Z,89.54
2019-01-30T17:24:22.772Z,89.64
2019-01-30T17:26:50.271Z,89.83
2019-01-30T17:29:17.787Z,89.98
2019-01-30T17:31:45.357Z,89.80
2019-01-30T17:34:12.791Z,90.87
2019-01-30T17:36:40.264Z,90.67
2019-01-30T17:39:07.706Z,90.62
2019-01-30T17:41:35.183Z,91.11
2019-01-30T17:44:02.620Z,90.94
2019-01-30T17:46:30.429Z,90.84
2019-01-30T17:48:57.867Z,90.55
2019-01-30T17:51:25.309Z,90.50
2019-01-30T17:53:52.803Z,89.99
2019-01-30T17:56:20.251Z,89.42
2019-01-30T17:58:47.697Z,89.38
2019-01-30T18:01:15.126Z,89.79
2019-01-30T18:03:42.586Z,89.70
2019-01-30T18:06:12.660Z,89.03
2019-01-30T18:08:37.559Z,89.44
2019-01-30T18:11:04.998Z,88.91
2019-01-30T18:13:32.454Z,89.28
2019-01-30T18:15:59.876Z,89.62
2019-01-30T18:18:27.334Z,89.03
2019-01-30T18:20:54.783Z,89.22
2019-01-30T18:23:22.257Z,88.62
2019-01-30T18:25:49.702Z,88.49
2019-01-30T18:28:17.181Z,88.72
2019-01-30T18:30:44.655Z,88.99
2019-01-30T18:33:12.140Z,89.43
2019-01-30T18:35:39.575Z,89.63
2019-01-30T18:38:07.032Z,90.30
2019-01-30T18:40:34.478Z,89.59
2019-01-30T18:43:01.928Z,89.82
2019-01-30T18:45:29.418Z,89.76
2019-01-30T18:47:56.843Z,89.54
2019-01-30T18:50:25.927Z,89.45
2019-01-30T18:52:53.441Z,89.83
2019-01-30T18:55:20.901Z,90.21
2019-01-30T18:57:48.387Z,89.77
2019-01-30T19:00:20.229Z,89.45
2019-01-30T19:02:47.839Z,89.18
2019-01-30T19:05:15.403Z,89.24
2019-01-30T19:07:43.069Z,89.44
2019-01-30T19:10:10.507Z,90.68
2019-01-30T19:12:37.960Z,90.92
2019-01-30T19:15:05.392Z,90.75
2019-01-30T19:17:32.928Z,90.84
2019-01-30T19:20:00.531Z,90.92
2019-01-30T19:22:28.036Z,90.62
2019-01-30T19:24:55.746Z,90.10
2019-01-30T19:27:23.212Z,89.84
2019-01-30T19:29:50.650Z,90.13
2019-01-30T19:32:18.103Z,89.69
2019-01-30T19:34:45.691Z,90.05
2019-01-30T19:37:13.155Z,89.33
2019-01-30T19:39:40.635Z,89.42
2019-01-30T19:42:08.111Z,89.76
2019-01-30T19:44:35.803Z,89.66
2019-01-30T19:47:03.266Z,90.35
2019-01-30T19:49:30.852Z,90.28
2019-01-30T19:51:58.373Z,89.80
2019-01-30T19:54:25.921Z,89.83
2019-01-30T19:56:53.380Z,89.79
2019-01-30T19:59:20.878Z,89.74
2019-01-30T20:01:48.392Z,89.63
2019-01-30T20:04:15.861Z,90.15
2019-01-30T20:06:43.373Z,90.55
2019-01-30T20:09:10.997Z,90.51
2019-01-30T20:11:38.524Z,90.11
2019-01-30T20:14:06.048Z,90.27
2019-01-30T20:16:33.669Z,89.97
2019-01-30T20:19:01.208Z,89.63
2019-01-30T20:24:20.916Z,89.66
2019-01-30T20:26:48.517Z,89.96
2019-01-30T20:29:15.967Z,89.54
2019-01-30T20:34:45.633Z,88.89
2019-01-30T20:37:13.103Z,88.92
2019-01-30T20:39:40.588Z,89.60
2019-01-30T20:42:08.068Z,89.42
2019-01-30T20:44:35.737Z,88.99
2019-01-30T20:47:03.309Z,88.49
2019-01-30T20:49:30.896Z,88.69
2019-01-30T20:51:58.407Z,88.45
2019-01-30T20:54:25.882Z,88.30
2019-01-30T20:56:54.492Z,88.30
2019-01-30T20:59:21.977Z,88.62
2019-01-30T21:01:49.445Z,88.84
2019-01-30T21:04:16.974Z,88.91
2019-01-30T21:06:44.475Z,88.50
2019-01-30T21:09:12.235Z,88.38
2019-01-30T21:11:39.998Z,88.28
2019-01-30T21:14:07.579Z,88.95
2019-01-30T21:16:35.436Z,88.95
2019-01-30T21:19:02.924Z,89.05
2019-01-30T21:21:30.605Z,89.06
2019-01-30T21:23:58.277Z,88.94
2019-01-30T21:26:25.952Z,89.39
2019-01-30T21:28:53.441Z,89.13
2019-01-30T21:31:20.928Z,88.67
2019-01-30T21:33:49.246Z,88.37
2019-01-30T21:36:17.307Z,88.89
2019-01-30T21:38:44.978Z,88.91
2019-01-30T21:41:12.473Z,88.50
2019-01-30T21:43:40.012Z,88.11
2019-01-30T21:46:07.524Z,88.04
2019-01-30T21:48:35.213Z,88.32
2019-01-30T21:51:02.690Z,89.69
2019-01-30T21:53:30.195Z,90.02
2019-01-30T21:55:58.614Z,90.89
2019-01-30T21:58:26.192Z,90.48
2019-01-30T22:00:53.717Z,91.31
2019-01-30T22:03:21.534Z,91.08
2019-01-30T22:05:49.142Z,91.16
2019-01-30T22:08:17.271Z,91.64
2019-01-30T22:10:44.701Z,92.25
2019-01-30T22:13:12.180Z,92.71
2019-01-30T22:15:39.710Z,92.66
2019-01-30T22:18:07.474Z,92.92
2019-01-30T22:20:34.968Z,92.93
2019-01-30T22:23:02.431Z,93.55
2019-01-30T22:25:29.943Z,93.71
2019-01-30T22:27:57.434Z,93.38
2019-01-30T22:30:24.897Z,93.25
2019-01-30T22:32:52.379Z,93.28
2019-01-30T22:35:19.838Z,92.88
2019-01-30T22:37:47.299Z,92.44
2019-01-30T22:40:14.808Z,93.07
2019-01-30T22:42:42.254Z,93.33
2019-01-30T22:45:12.474Z,93.04
2019-01-30T22:47:39.939Z,92.79
2019-01-30T22:50:07.375Z,92.77
2019-01-30T22:52:34.797Z,92.87
2019-01-30T22:55:02.286Z,93.29
2019-01-30T22:57:29.735Z,93.71
2019-01-30T22:59:57.279Z,93.46
2019-01-30T23:02:24.720Z,93.33
2019-01-30T23:04:54.731Z,92.88
2019-01-30T23:07:23.189Z,92.61
2019-01-30T23:10:10.105Z,92.27
2019-01-30T23:13:07.443Z,92.21
2019-01-30T23:15:36.654Z,92.22
2019-01-30T23:18:27.527Z,92.25
2019-01-30T23:20:55.992Z,92.14
2019-01-30T23:23:34.753Z,91.91
2019-01-30T23:26:15.711Z,91.63
2019-01-30T23:28:55.656Z,91.70
2019-01-30T23:31:42.455Z,91.27
2019-01-30T23:34:16.496Z,91.93
2019-01-30T23:37:05.650Z,91.92
2019-01-30T23:43:01.709Z,92.26
2019-01-30T23:45:47.721Z,92.22
2019-01-30T23:48:34.481Z,92.49
2019-01-30T23:51:28.248Z,92.74
2019-01-30T23:53:57.521Z,92.40
2019-01-30T23:56:31.357Z,92.60
2019-01-30T23:58:58.854Z,92.39
